sensor_id;sensor_type;location;lat;lon;timestamp;temperature;humidity
41256;DHT22;26989;45.524;10.938;2022-09-20T00:01:25;14.50;78.30
41256;DHT22;26989;45.524;10.938;2022-09-20T00:03:56;15.10;75.50
41256;DHT22;26989;45.524;10.938;2022-09-20T00:06:27;15.30;74.50
41256;DHT22;26989;45.524;10.938;2022-09-20T00:08:54;15.00;75.90
41256;DHT22;26989;45.524;10.938;2022-09-20T00:11:27;14.80;76.70
41256;DHT22;26989;45.524;10.938;2022-09-20T00:13:56;14.90;75.70
41256;DHT22;26989;45.524;10.938;2022-09-20T00:16:27;14.90;76.00
41256;DHT22;26989;45.524;10.938;2022-09-20T00:18:56;15.00;75.00
41256;DHT22;26989;45.524;10.938;2022-09-20T00:21:26;15.20;74.30
41256;DHT22;26989;45.524;10.938;2022-09-20T00:23:53;15.00;75.00
41256;DHT22;26989;45.524;10.938;2022-09-20T00:26:20;15.20;74.00
41256;DHT22;26989;45.524;10.938;2022-09-20T00:28:48;15.20;76.10
41256;DHT22;26989;45.524;10.938;2022-09-20T00:31:15;15.00;75.50
41256;DHT22;26989;45.524;10.938;2022-09-20T00:33:42;15.20;74.40
41256;DHT22;26989;45.524;10.938;2022-09-20T00:36:28;15.10;74.90
41256;DHT22;26989;45.524;10.938;2022-09-20T00:39:00;15.10;75.10
41256;DHT22;26989;45.524;10.938;2022-09-20T00:41:29;15.30;74.20
41256;DHT22;26989;45.524;10.938;2022-09-20T00:43:56;15.60;72.90
41256;DHT22;26989;45.524;10.938;2022-09-20T00:49:26;15.30;74.10
41256;DHT22;26989;45.524;10.938;2022-09-20T00:51:59;15.00;76.30
41256;DHT22;26989;45.524;10.938;2022-09-20T00:54:27;14.70;76.40
41256;DHT22;26989;45.524;10.938;2022-09-20T00:56:55;15.30;74.70
41256;DHT22;26989;45.524;10.938;2022-09-20T00:59:35;15.50;73.10
41256;DHT22;26989;45.524;10.938;2022-09-20T01:02:15;15.80;72.80
41256;DHT22;26989;45.524;10.938;2022-09-20T01:04:43;15.70;73.30
41256;DHT22;26989;45.524;10.938;2022-09-20T01:07:13;15.60;73.70
41256;DHT22;26989;45.524;10.938;2022-09-20T01:09:41;15.60;73.90
41256;DHT22;26989;45.524;10.938;2022-09-20T01:12:13;15.60;73.10
41256;DHT22;26989;45.524;10.938;2022-09-20T01:14:43;16.10;71.60
41256;DHT22;26989;45.524;10.938;2022-09-20T01:17:12;16.60;72.20
41256;DHT22;26989;45.524;10.938;2022-09-20T01:25:16;16.40;69.90
41256;DHT22;26989;45.524;10.938;2022-09-20T01:27:49;16.20;70.10
41256;DHT22;26989;45.524;10.938;2022-09-20T01:30:22;16.20;69.80
41256;DHT22;26989;45.524;10.938;2022-09-20T01:35:49;16.00;70.00
41256;DHT22;26989;45.524;10.938;2022-09-20T01:38:43;16.00;69.40
41256;DHT22;26989;45.524;10.938;2022-09-20T01:41:17;16.00;69.00
41256;DHT22;26989;45.524;10.938;2022-09-20T01:43:56;16.10;69.10
41256;DHT22;26989;45.524;10.938;2022-09-20T02:00:00;16.20;69.20
41256;DHT22;26989;45.524;10.938;2022-09-20T02:02:38;16.20;69.50
41256;DHT22;26989;45.524;10.938;2022-09-20T02:05:38;16.20;70.50
41256;DHT22;26989;45.524;10.938;2022-09-20T02:24:43;16.70;67.30
41256;DHT22;26989;45.524;10.938;2022-09-20T02:30:50;16.40;67.30
41256;DHT22;26989;45.524;10.938;2022-09-20T02:38:59;16.20;66.10
41256;DHT22;26989;45.524;10.938;2022-09-20T02:50:09;15.40;69.90
41256;DHT22;26989;45.524;10.938;2022-09-20T03:10:27;14.80;71.40
41256;DHT22;26989;45.524;10.938;2022-09-20T03:38:19;14.00;76.60
41256;DHT22;26989;45.524;10.938;2022-09-20T03:46:24;13.60;76.20
41256;DHT22;26989;45.524;10.938;2022-09-20T03:48:58;13.70;76.10
41256;DHT22;26989;45.524;10.938;2022-09-20T03:51:37;14.00;74.80
41256;DHT22;26989;45.524;10.938;2022-09-20T04:15:00;13.60;77.10
41256;DHT22;26989;45.524;10.938;2022-09-20T04:20:34;13.50;77.20
41256;DHT22;26989;45.524;10.938;2022-09-20T04:25:51;13.70;77.10
41256;DHT22;26989;45.524;10.938;2022-09-20T04:28:45;13.80;77.00
41256;DHT22;26989;45.524;10.938;2022-09-20T04:31:31;13.70;77.20
41256;DHT22;26989;45.524;10.938;2022-09-20T04:33:59;13.50;78.30
41256;DHT22;26989;45.524;10.938;2022-09-20T04:39:29;13.30;79.70
41256;DHT22;26989;45.524;10.938;2022-09-20T04:42:04;13.40;79.00
41256;DHT22;26989;45.524;10.938;2022-09-20T04:45:09;13.50;79.30
41256;DHT22;26989;45.524;10.938;2022-09-20T04:48:03;13.50;78.20
41256;DHT22;26989;45.524;10.938;2022-09-20T04:53:33;13.60;78.30
41256;DHT22;26989;45.524;10.938;2022-09-20T04:58:59;13.60;78.70
41256;DHT22;26989;45.524;10.938;2022-09-20T05:18:29;13.10;82.20
41256;DHT22;26989;45.524;10.938;2022-09-20T05:26:37;13.10;82.10
41256;DHT22;26989;45.524;10.938;2022-09-20T05:30:00;13.30;81.70
41256;DHT22;26989;45.524;10.938;2022-09-20T05:35:28;13.20;84.10
41256;DHT22;26989;45.524;10.938;2022-09-20T05:41:13;13.10;85.00
41256;DHT22;26989;45.524;10.938;2022-09-20T05:47:30;12.90;87.40
41256;DHT22;26989;45.524;10.938;2022-09-20T05:49:51;13.00;87.00
41256;DHT22;26989;45.524;10.938;2022-09-20T05:52:37;13.20;85.80
41256;DHT22;26989;45.524;10.938;2022-09-20T05:55:44;13.40;87.60
41256;DHT22;26989;45.524;10.938;2022-09-20T06:01:10;13.80;86.80
41256;DHT22;26989;45.524;10.938;2022-09-20T06:06:21;15.10;83.60
41256;DHT22;26989;45.524;10.938;2022-09-20T06:14:54;16.80;79.90
41256;DHT22;26989;45.524;10.938;2022-09-20T06:17:42;17.00;80.80
41256;DHT22;26989;45.524;10.938;2022-09-20T06:22:49;16.60;82.20
41256;DHT22;26989;45.524;10.938;2022-09-20T06:25:41;16.00;82.20
41256;DHT22;26989;45.524;10.938;2022-09-20T06:28:17;14.10;88.40
41256;DHT22;26989;45.524;10.938;2022-09-20T06:30:46;14.00;89.60
41256;DHT22;26989;45.524;10.938;2022-09-20T06:33:24;14.30;88.00
41256;DHT22;26989;45.524;10.938;2022-09-20T06:36:00;14.30;88.30
41256;DHT22;26989;45.524;10.938;2022-09-20T06:41:38;14.70;88.70
41256;DHT22;26989;45.524;10.938;2022-09-20T06:44:06;14.80;90.70
41256;DHT22;26989;45.524;10.938;2022-09-20T06:46:35;14.90;90.50
41256;DHT22;26989;45.524;10.938;2022-09-20T06:49:02;15.00;90.00
41256;DHT22;26989;45.524;10.938;2022-09-20T06:51:34;15.10;89.10
41256;DHT22;26989;45.524;10.938;2022-09-20T06:54:01;15.30;89.70
41256;DHT22;26989;45.524;10.938;2022-09-20T06:56:30;15.50;88.40
41256;DHT22;26989;45.524;10.938;2022-09-20T06:59:03;15.60;87.90
41256;DHT22;26989;45.524;10.938;2022-09-20T07:01:30;15.80;88.40
41256;DHT22;26989;45.524;10.938;2022-09-20T07:03:57;16.00;86.90
41256;DHT22;26989;45.524;10.938;2022-09-20T07:06:24;16.10;86.40
41256;DHT22;26989;45.524;10.938;2022-09-20T07:08:52;16.20;89.10
41256;DHT22;26989;45.524;10.938;2022-09-20T07:11:19;16.10;89.60
41256;DHT22;26989;45.524;10.938;2022-09-20T07:13:52;16.20;89.70
41256;DHT22;26989;45.524;10.938;2022-09-20T07:16:19;16.30;88.10
41256;DHT22;26989;45.524;10.938;2022-09-20T07:18:48;16.40;86.80
41256;DHT22;26989;45.524;10.938;2022-09-20T07:21:16;16.50;85.60
41256;DHT22;26989;45.524;10.938;2022-09-20T07:23:44;16.60;84.80
41256;DHT22;26989;45.524;10.938;2022-09-20T07:26:28;16.60;84.20
41256;DHT22;26989;45.524;10.938;2022-09-20T07:28:57;16.70;84.60
41256;DHT22;26989;45.524;10.938;2022-09-20T07:31:25;16.70;83.50
41256;DHT22;26989;45.524;10.938;2022-09-20T07:33:53;16.80;84.10
41256;DHT22;26989;45.524;10.938;2022-09-20T07:36:20;16.80;85.40
41256;DHT22;26989;45.524;10.938;2022-09-20T07:38:48;16.90;86.40
41256;DHT22;26989;45.524;10.938;2022-09-20T07:41:16;17.00;87.70
41256;DHT22;26989;45.524;10.938;2022-09-20T07:43:48;17.00;87.20
41256;DHT22;26989;45.524;10.938;2022-09-20T07:46:16;17.00;87.20
41256;DHT22;26989;45.524;10.938;2022-09-20T07:48:43;17.00;87.50
41256;DHT22;26989;45.524;10.938;2022-09-20T07:51:12;17.10;87.40
41256;DHT22;26989;45.524;10.938;2022-09-20T07:53:39;17.10;87.90
41256;DHT22;26989;45.524;10.938;2022-09-20T07:56:09;17.10;88.00
41256;DHT22;26989;45.524;10.938;2022-09-20T07:58:37;17.10;88.10
41256;DHT22;26989;45.524;10.938;2022-09-20T08:01:09;17.20;87.90
41256;DHT22;26989;45.524;10.938;2022-09-20T08:03:37;17.20;87.80
41256;DHT22;26989;45.524;10.938;2022-09-20T08:06:10;17.40;87.40
41256;DHT22;26989;45.524;10.938;2022-09-20T08:08:39;17.40;86.80
41256;DHT22;26989;45.524;10.938;2022-09-20T08:11:11;17.40;86.20
41256;DHT22;26989;45.524;10.938;2022-09-20T08:13:41;17.40;86.40
41256;DHT22;26989;45.524;10.938;2022-09-20T08:16:29;17.50;86.50
41256;DHT22;26989;45.524;10.938;2022-09-20T08:19:00;17.60;86.40
41256;DHT22;26989;45.524;10.938;2022-09-20T08:21:31;17.60;86.50
41256;DHT22;26989;45.524;10.938;2022-09-20T08:23:59;17.70;85.40
41256;DHT22;26989;45.524;10.938;2022-09-20T08:26:28;17.80;85.30
41256;DHT22;26989;45.524;10.938;2022-09-20T08:28:56;17.90;84.30
41256;DHT22;26989;45.524;10.938;2022-09-20T08:31:26;18.00;85.80
41256;DHT22;26989;45.524;10.938;2022-09-20T08:33:53;17.80;86.30
41256;DHT22;26989;45.524;10.938;2022-09-20T08:36:22;17.90;86.20
41256;DHT22;26989;45.524;10.938;2022-09-20T08:38:51;17.90;86.50
41256;DHT22;26989;45.524;10.938;2022-09-20T08:47:56;18.10;87.10
41256;DHT22;26989;45.524;10.938;2022-09-20T08:50:24;18.30;87.00
41256;DHT22;26989;45.524;10.938;2022-09-20T08:52:56;18.20;85.70
41256;DHT22;26989;45.524;10.938;2022-09-20T08:55:27;18.30;85.80
41256;DHT22;26989;45.524;10.938;2022-09-20T08:58:09;18.20;85.60
41256;DHT22;26989;45.524;10.938;2022-09-20T09:00:37;18.30;84.10
41256;DHT22;26989;45.524;10.938;2022-09-20T09:03:09;18.50;84.00
41256;DHT22;26989;45.524;10.938;2022-09-20T09:05:42;18.50;84.80
41256;DHT22;26989;45.524;10.938;2022-09-20T09:08:13;18.50;85.10
41256;DHT22;26989;45.524;10.938;2022-09-20T09:10:48;18.50;84.20
41256;DHT22;26989;45.524;10.938;2022-09-20T09:13:33;18.50;85.50
41256;DHT22;26989;45.524;10.938;2022-09-20T09:16:13;18.50;85.00
41256;DHT22;26989;45.524;10.938;2022-09-20T09:18:44;18.60;85.90
41256;DHT22;26989;45.524;10.938;2022-09-20T09:21:22;18.70;86.40
41256;DHT22;26989;45.524;10.938;2022-09-20T09:26:21;18.90;85.40
41256;DHT22;26989;45.524;10.938;2022-09-20T09:31:39;18.90;83.40
41256;DHT22;26989;45.524;10.938;2022-09-20T09:36:52;19.00;84.40
41256;DHT22;26989;45.524;10.938;2022-09-20T09:39:31;19.10;83.90
41256;DHT22;26989;45.524;10.938;2022-09-20T09:41:59;18.90;82.30
41256;DHT22;26989;45.524;10.938;2022-09-20T09:44:29;19.00;82.20
41256;DHT22;26989;45.524;10.938;2022-09-20T09:46:56;19.00;82.70
41256;DHT22;26989;45.524;10.938;2022-09-20T09:49:25;19.00;82.30
41256;DHT22;26989;45.524;10.938;2022-09-20T09:52:16;19.30;80.80
41256;DHT22;26989;45.524;10.938;2022-09-20T09:54:52;19.60;78.50
41256;DHT22;26989;45.524;10.938;2022-09-20T09:57:50;19.90;76.60
41256;DHT22;26989;45.524;10.938;2022-09-20T10:00:23;20.00;74.30
41256;DHT22;26989;45.524;10.938;2022-09-20T10:19:33;20.30;78.00
41256;DHT22;26989;45.524;10.938;2022-09-20T10:25:38;20.30;77.50
41256;DHT22;26989;45.524;10.938;2022-09-20T10:30:48;20.50;75.20
41256;DHT22;26989;45.524;10.938;2022-09-20T10:36:03;20.50;75.50
41256;DHT22;26989;45.524;10.938;2022-09-20T10:41:42;20.50;77.10
41256;DHT22;26989;45.524;10.938;2022-09-20T10:47:17;20.70;78.20
41256;DHT22;26989;45.524;10.938;2022-09-20T10:55:16;20.90;78.60
41256;DHT22;26989;45.524;10.938;2022-09-20T11:00:22;20.90;78.20
41256;DHT22;26989;45.524;10.938;2022-09-20T11:05:34;21.10;73.90
41256;DHT22;26989;45.524;10.938;2022-09-20T11:08:13;21.30;73.30
41256;DHT22;26989;45.524;10.938;2022-09-20T11:10:54;21.30;74.40
41256;DHT22;26989;45.524;10.938;2022-09-20T11:22:09;21.40;70.90
41256;DHT22;26989;45.524;10.938;2022-09-20T11:27:15;21.50;71.60
41256;DHT22;26989;45.524;10.938;2022-09-20T11:32:29;21.20;72.20
41256;DHT22;26989;45.524;10.938;2022-09-20T11:37:43;21.50;73.70
41256;DHT22;26989;45.524;10.938;2022-09-20T11:40:24;21.40;72.80
41256;DHT22;26989;45.524;10.938;2022-09-20T11:42:55;21.30;75.00
41256;DHT22;26989;45.524;10.938;2022-09-20T11:45:22;21.20;75.70
41256;DHT22;26989;45.524;10.938;2022-09-20T11:47:58;21.20;73.90
41256;DHT22;26989;45.524;10.938;2022-09-20T11:55:53;21.30;73.00
41256;DHT22;26989;45.524;10.938;2022-09-20T11:58:23;21.30;73.20
41256;DHT22;26989;45.524;10.938;2022-09-20T12:00:54;21.40;72.80
41256;DHT22;26989;45.524;10.938;2022-09-20T12:03:39;21.50;73.30
41256;DHT22;26989;45.524;10.938;2022-09-20T12:06:20;21.70;73.80
41256;DHT22;26989;45.524;10.938;2022-09-20T12:08:50;21.70;75.60
41256;DHT22;26989;45.524;10.938;2022-09-20T12:11:31;21.90;77.20
41256;DHT22;26989;45.524;10.938;2022-09-20T12:14:15;22.10;75.50
41256;DHT22;26989;45.524;10.938;2022-09-20T12:16:45;22.30;76.80
41256;DHT22;26989;45.524;10.938;2022-09-20T12:24:37;22.70;75.20
41256;DHT22;26989;45.524;10.938;2022-09-20T12:29:51;22.70;76.70
41256;DHT22;26989;45.524;10.938;2022-09-20T12:32:43;22.80;75.50
41256;DHT22;26989;45.524;10.938;2022-09-20T12:35:50;23.00;75.60
41256;DHT22;26989;45.524;10.938;2022-09-20T12:43:33;23.10;75.90
41256;DHT22;26989;45.524;10.938;2022-09-20T12:46:01;23.00;75.00
41256;DHT22;26989;45.524;10.938;2022-09-20T12:48:36;23.00;73.90
41256;DHT22;26989;45.524;10.938;2022-09-20T12:51:21;23.10;72.80
41256;DHT22;26989;45.524;10.938;2022-09-20T12:54:10;23.20;73.20
41256;DHT22;26989;45.524;10.938;2022-09-20T12:56:40;23.20;75.40
41256;DHT22;26989;45.524;10.938;2022-09-20T12:59:22;23.20;74.00
41256;DHT22;26989;45.524;10.938;2022-09-20T13:01:50;23.10;75.10
41256;DHT22;26989;45.524;10.938;2022-09-20T13:07:28;23.20;76.50
41256;DHT22;26989;45.524;10.938;2022-09-20T13:10:02;23.00;76.40
41256;DHT22;26989;45.524;10.938;2022-09-20T13:12:35;22.90;77.10
41256;DHT22;26989;45.524;10.938;2022-09-20T13:15:03;22.90;78.30
41256;DHT22;26989;45.524;10.938;2022-09-20T13:17:32;23.00;78.00
41256;DHT22;26989;45.524;10.938;2022-09-20T13:20:00;22.80;77.60
41256;DHT22;26989;45.524;10.938;2022-09-20T13:22:33;22.80;77.30
41256;DHT22;26989;45.524;10.938;2022-09-20T13:25:05;22.50;77.60
41256;DHT22;26989;45.524;10.938;2022-09-20T13:27:35;22.10;79.10
41256;DHT22;26989;45.524;10.938;2022-09-20T13:30:24;21.80;79.80
41256;DHT22;26989;45.524;10.938;2022-09-20T13:32:52;21.60;80.20
41256;DHT22;26989;45.524;10.938;2022-09-20T13:35:21;21.60;77.40
41256;DHT22;26989;45.524;10.938;2022-09-20T13:38:00;21.40;79.30
41256;DHT22;26989;45.524;10.938;2022-09-20T13:40:37;21.10;78.40
41256;DHT22;26989;45.524;10.938;2022-09-20T13:45:58;20.90;78.80
41256;DHT22;26989;45.524;10.938;2022-09-20T13:48:29;21.30;78.80
41256;DHT22;26989;45.524;10.938;2022-09-20T13:50:56;21.60;79.00
41256;DHT22;26989;45.524;10.938;2022-09-20T13:53:26;21.50;81.60
41256;DHT22;26989;45.524;10.938;2022-09-20T13:56:26;21.60;82.00
41256;DHT22;26989;45.524;10.938;2022-09-20T13:58:55;22.30;80.80
41256;DHT22;26989;45.524;10.938;2022-09-20T14:01:33;22.60;80.80
41256;DHT22;26989;45.524;10.938;2022-09-20T14:04:22;22.60;80.70
41256;DHT22;26989;45.524;10.938;2022-09-20T14:06:52;22.40;79.80
41256;DHT22;26989;45.524;10.938;2022-09-20T14:09:33;22.30;80.60
41256;DHT22;26989;45.524;10.938;2022-09-20T14:12:02;22.40;80.00
41256;DHT22;26989;45.524;10.938;2022-09-20T14:14:30;22.30;79.30
41256;DHT22;26989;45.524;10.938;2022-09-20T14:17:00;22.20;79.80
41256;DHT22;26989;45.524;10.938;2022-09-20T14:19:32;22.20;79.70
41256;DHT22;26989;45.524;10.938;2022-09-20T14:22:03;22.00;81.00
41256;DHT22;26989;45.524;10.938;2022-09-20T14:24:35;22.00;80.60
41256;DHT22;26989;45.524;10.938;2022-09-20T14:27:16;21.70;81.30
41256;DHT22;26989;45.524;10.938;2022-09-20T14:29:45;21.80;80.80
41256;DHT22;26989;45.524;10.938;2022-09-20T14:40:03;21.40;80.40
41256;DHT22;26989;45.524;10.938;2022-09-20T14:42:35;21.70;82.40
41256;DHT22;26989;45.524;10.938;2022-09-20T14:45:15;21.80;80.60
41256;DHT22;26989;45.524;10.938;2022-09-20T14:47:57;22.20;80.10
41256;DHT22;26989;45.524;10.938;2022-09-20T14:50:34;22.40;78.40
41256;DHT22;26989;45.524;10.938;2022-09-20T14:58:31;23.00;79.20
41256;DHT22;26989;45.524;10.938;2022-09-20T15:01:02;23.10;78.80
41256;DHT22;26989;45.524;10.938;2022-09-20T15:03:37;23.20;77.80
41256;DHT22;26989;45.524;10.938;2022-09-20T15:06:10;23.40;77.30
41256;DHT22;26989;45.524;10.938;2022-09-20T15:08:38;23.60;75.70
41256;DHT22;26989;45.524;10.938;2022-09-20T15:11:14;23.60;75.40
41256;DHT22;26989;45.524;10.938;2022-09-20T15:13:41;23.20;76.30
41256;DHT22;26989;45.524;10.938;2022-09-20T15:16:10;23.50;77.80
41256;DHT22;26989;45.524;10.938;2022-09-20T15:18:42;23.50;77.60
41256;DHT22;26989;45.524;10.938;2022-09-20T15:21:09;23.40;78.60
41256;DHT22;26989;45.524;10.938;2022-09-20T15:23:39;23.50;76.90
41256;DHT22;26989;45.524;10.938;2022-09-20T15:26:06;23.20;77.80
41256;DHT22;26989;45.524;10.938;2022-09-20T15:28:36;23.20;77.20
41256;DHT22;26989;45.524;10.938;2022-09-20T15:31:03;23.10;76.80
41256;DHT22;26989;45.524;10.938;2022-09-20T15:33:31;23.20;76.30
41256;DHT22;26989;45.524;10.938;2022-09-20T15:36:00;23.20;76.30
41256;DHT22;26989;45.524;10.938;2022-09-20T15:38:27;23.30;75.40
41256;DHT22;26989;45.524;10.938;2022-09-20T15:40:54;23.20;74.50
41256;DHT22;26989;45.524;10.938;2022-09-20T15:43:22;23.20;74.70
41256;DHT22;26989;45.524;10.938;2022-09-20T15:45:52;23.20;76.60
41256;DHT22;26989;45.524;10.938;2022-09-20T15:48:25;23.20;76.70
41256;DHT22;26989;45.524;10.938;2022-09-20T15:51:03;23.00;77.90
41256;DHT22;26989;45.524;10.938;2022-09-20T15:53:36;23.00;77.30
41256;DHT22;26989;45.524;10.938;2022-09-20T15:56:19;22.80;77.90
41256;DHT22;26989;45.524;10.938;2022-09-20T15:58:50;22.80;78.20
41256;DHT22;26989;45.524;10.938;2022-09-20T16:03:55;22.60;78.30
41256;DHT22;26989;45.524;10.938;2022-09-20T16:06:22;22.40;78.40
41256;DHT22;26989;45.524;10.938;2022-09-20T16:08:50;22.40;77.60
41256;DHT22;26989;45.524;10.938;2022-09-20T16:11:19;22.20;77.10
41256;DHT22;26989;45.524;10.938;2022-09-20T16:13:52;22.10;78.80
41256;DHT22;26989;45.524;10.938;2022-09-20T16:16:19;22.00;79.00
41256;DHT22;26989;45.524;10.938;2022-09-20T16:18:46;21.80;78.40
41256;DHT22;26989;45.524;10.938;2022-09-20T16:21:32;21.60;80.20
41256;DHT22;26989;45.524;10.938;2022-09-20T16:23:59;21.40;81.90
41256;DHT22;26989;45.524;10.938;2022-09-20T16:26:27;21.40;83.00
41256;DHT22;26989;45.524;10.938;2022-09-20T16:28:54;21.30;83.40
41256;DHT22;26989;45.524;10.938;2022-09-20T16:34:15;20.80;84.50
41256;DHT22;26989;45.524;10.938;2022-09-20T16:36:51;20.70;85.50
41256;DHT22;26989;45.524;10.938;2022-09-20T16:39:22;20.60;85.50
41256;DHT22;26989;45.524;10.938;2022-09-20T16:42:04;20.40;86.50
41256;DHT22;26989;45.524;10.938;2022-09-20T16:44:36;20.30;87.00
41256;DHT22;26989;45.524;10.938;2022-09-20T16:47:04;20.30;87.50
41256;DHT22;26989;45.524;10.938;2022-09-20T16:49:35;20.10;86.80
41256;DHT22;26989;45.524;10.938;2022-09-20T16:52:07;20.00;87.60
41256;DHT22;26989;45.524;10.938;2022-09-20T16:54:35;19.90;86.20
41256;DHT22;26989;45.524;10.938;2022-09-20T16:57:01;20.00;87.00
41256;DHT22;26989;45.524;10.938;2022-09-20T16:59:28;19.90;89.40
41256;DHT22;26989;45.524;10.938;2022-09-20T17:01:55;19.60;90.10
41256;DHT22;26989;45.524;10.938;2022-09-20T17:04:22;19.40;90.20
41256;DHT22;26989;45.524;10.938;2022-09-20T17:06:49;19.30;90.20
41256;DHT22;26989;45.524;10.938;2022-09-20T17:09:17;19.30;90.10
41256;DHT22;26989;45.524;10.938;2022-09-20T17:11:46;19.40;90.10
41256;DHT22;26989;45.524;10.938;2022-09-20T17:14:16;19.10;90.40
41256;DHT22;26989;45.524;10.938;2022-09-20T17:16:44;18.80;91.10
41256;DHT22;26989;45.524;10.938;2022-09-20T17:19:16;18.60;91.90
41256;DHT22;26989;45.524;10.938;2022-09-20T17:21:47;18.20;92.40
41256;DHT22;26989;45.524;10.938;2022-09-20T17:24:18;18.00;92.90
41256;DHT22;26989;45.524;10.938;2022-09-20T17:26:46;17.90;93.20
41256;DHT22;26989;45.524;10.938;2022-09-20T17:29:14;17.80;93.20
41256;DHT22;26989;45.524;10.938;2022-09-20T17:31:44;17.80;93.00
41256;DHT22;26989;45.524;10.938;2022-09-20T17:34:19;17.70;93.40
41256;DHT22;26989;45.524;10.938;2022-09-20T17:36:48;17.50;93.70
41256;DHT22;26989;45.524;10.938;2022-09-20T17:39:16;17.50;93.60
41256;DHT22;26989;45.524;10.938;2022-09-20T17:41:45;17.60;93.40
41256;DHT22;26989;45.524;10.938;2022-09-20T17:44:13;17.50;93.10
41256;DHT22;26989;45.524;10.938;2022-09-20T17:46:42;17.40;93.40
41256;DHT22;26989;45.524;10.938;2022-09-20T17:49:11;17.30;93.60
41256;DHT22;26989;45.524;10.938;2022-09-20T17:51:43;17.20;93.70
41256;DHT22;26989;45.524;10.938;2022-09-20T17:54:12;17.20;93.60
41256;DHT22;26989;45.524;10.938;2022-09-20T17:56:45;17.10;93.80
41256;DHT22;26989;45.524;10.938;2022-09-20T17:59:14;16.90;94.20
41256;DHT22;26989;45.524;10.938;2022-09-20T18:01:43;16.80;94.40
41256;DHT22;26989;45.524;10.938;2022-09-20T18:04:10;16.50;94.70
41256;DHT22;26989;45.524;10.938;2022-09-20T18:06:46;16.50;94.70
41256;DHT22;26989;45.524;10.938;2022-09-20T18:09:15;16.40;94.70
41256;DHT22;26989;45.524;10.938;2022-09-20T18:11:45;16.50;94.60
41256;DHT22;26989;45.524;10.938;2022-09-20T18:14:15;16.50;94.30
41256;DHT22;26989;45.524;10.938;2022-09-20T18:16:42;16.50;94.30
41256;DHT22;26989;45.524;10.938;2022-09-20T18:19:13;16.60;94.10
41256;DHT22;26989;45.524;10.938;2022-09-20T18:21:42;16.50;94.30
41256;DHT22;26989;45.524;10.938;2022-09-20T18:24:10;16.50;94.40
41256;DHT22;26989;45.524;10.938;2022-09-20T18:26:38;16.50;94.40
41256;DHT22;26989;45.524;10.938;2022-09-20T18:29:10;16.40;94.40
41256;DHT22;26989;45.524;10.938;2022-09-20T18:34:16;16.30;94.60
41256;DHT22;26989;45.524;10.938;2022-09-20T18:36:45;16.50;94.20
41256;DHT22;26989;45.524;10.938;2022-09-20T18:39:13;16.60;93.80
41256;DHT22;26989;45.524;10.938;2022-09-20T18:41:40;16.60;94.00
41256;DHT22;26989;45.524;10.938;2022-09-20T18:44:10;16.40;94.30
41256;DHT22;26989;45.524;10.938;2022-09-20T18:46:39;16.50;94.40
41256;DHT22;26989;45.524;10.938;2022-09-20T18:49:08;16.60;94.20
41256;DHT22;26989;45.524;10.938;2022-09-20T18:51:36;16.50;94.20
41256;DHT22;26989;45.524;10.938;2022-09-20T18:54:06;16.60;94.20
41256;DHT22;26989;45.524;10.938;2022-09-20T18:56:40;16.60;94.10
41256;DHT22;26989;45.524;10.938;2022-09-20T18:59:19;16.60;94.10
41256;DHT22;26989;45.524;10.938;2022-09-20T19:04:28;16.70;94.20
41256;DHT22;26989;45.524;10.938;2022-09-20T19:09:48;16.70;94.30
41256;DHT22;26989;45.524;10.938;2022-09-20T19:15:29;16.90;94.10
41256;DHT22;26989;45.524;10.938;2022-09-20T19:26:22;16.80;94.00
41256;DHT22;26989;45.524;10.938;2022-09-20T19:28:54;16.80;94.10
41256;DHT22;26989;45.524;10.938;2022-09-20T19:33:54;16.90;94.10
41256;DHT22;26989;45.524;10.938;2022-09-20T19:36:22;16.80;94.10
41256;DHT22;26989;45.524;10.938;2022-09-20T19:41:44;16.40;95.00
41256;DHT22;26989;45.524;10.938;2022-09-20T19:52:17;16.80;95.00
41256;DHT22;26989;45.524;10.938;2022-09-20T19:54:45;16.80;94.80
41256;DHT22;26989;45.524;10.938;2022-09-20T19:57:19;16.70;95.10
41256;DHT22;26989;45.524;10.938;2022-09-20T19:59:47;16.60;95.20
41256;DHT22;26989;45.524;10.938;2022-09-20T20:02:14;16.40;95.40
41256;DHT22;26989;45.524;10.938;2022-09-20T20:04:42;16.50;95.50
41256;DHT22;26989;45.524;10.938;2022-09-20T20:07:20;16.40;95.60
41256;DHT22;26989;45.524;10.938;2022-09-20T20:10:17;16.40;95.80
41256;DHT22;26989;45.524;10.938;2022-09-20T20:16:12;16.30;96.00
41256;DHT22;26989;45.524;10.938;2022-09-20T20:21:48;16.30;96.20
41256;DHT22;26989;45.524;10.938;2022-09-20T20:24:31;16.30;96.20
41256;DHT22;26989;45.524;10.938;2022-09-20T20:27:02;16.20;96.20
41256;DHT22;26989;45.524;10.938;2022-09-20T20:29:28;16.20;96.20
41256;DHT22;26989;45.524;10.938;2022-09-20T20:31:55;16.10;96.40
41256;DHT22;26989;45.524;10.938;2022-09-20T20:34:22;16.00;96.50
41256;DHT22;26989;45.524;10.938;2022-09-20T20:36:51;16.00;96.60
41256;DHT22;26989;45.524;10.938;2022-09-20T20:39:26;16.00;96.60
41256;DHT22;26989;45.524;10.938;2022-09-20T20:41:55;16.10;96.60
41256;DHT22;26989;45.524;10.938;2022-09-20T20:44:31;16.10;96.60
41256;DHT22;26989;45.524;10.938;2022-09-20T20:47:05;16.00;96.70
41256;DHT22;26989;45.524;10.938;2022-09-20T20:49:32;15.90;97.00
41256;DHT22;26989;45.524;10.938;2022-09-20T20:51:59;16.10;96.80
41256;DHT22;26989;45.524;10.938;2022-09-20T20:54:31;16.30;96.30
41256;DHT22;26989;45.524;10.938;2022-09-20T20:56:58;16.10;96.40
41256;DHT22;26989;45.524;10.938;2022-09-20T20:59:25;16.00;96.60
41256;DHT22;26989;45.524;10.938;2022-09-20T21:01:52;16.00;96.70
41256;DHT22;26989;45.524;10.938;2022-09-20T21:04:19;15.90;96.90
41256;DHT22;26989;45.524;10.938;2022-09-20T21:06:47;15.70;97.20
41256;DHT22;26989;45.524;10.938;2022-09-20T21:09:15;15.70;97.00
41256;DHT22;26989;45.524;10.938;2022-09-20T21:11:42;15.70;97.10
41256;DHT22;26989;45.524;10.938;2022-09-20T21:14:10;15.70;97.10
41256;DHT22;26989;45.524;10.938;2022-09-20T21:16:40;15.60;97.10
41256;DHT22;26989;45.524;10.938;2022-09-20T21:19:12;15.60;97.30
41256;DHT22;26989;45.524;10.938;2022-09-20T21:21:42;15.60;97.10
41256;DHT22;26989;45.524;10.938;2022-09-20T21:24:11;15.70;97.30
41256;DHT22;26989;45.524;10.938;2022-09-20T21:26:38;15.90;96.60
41256;DHT22;26989;45.524;10.938;2022-09-20T21:29:09;15.80;96.80
41256;DHT22;26989;45.524;10.938;2022-09-20T21:31:42;15.90;96.70
41256;DHT22;26989;45.524;10.938;2022-09-20T21:34:11;15.90;96.60
41256;DHT22;26989;45.524;10.938;2022-09-20T21:36:39;15.90;96.60